createdAt,value
2022-09-24T03:02:41.575Z,100721.53
2022-09-24T03:05:08.484Z,100723.84
2022-09-24T03:07:34.870Z,100715.47
2022-09-24T03:10:01.325Z,100724.41
2022-09-24T03:12:27.732Z,100721.53
2022-09-24T03:14:54.164Z,100722.22
2022-09-24T03:17:20.643Z,100721.53
2022-09-24T03:19:47.078Z,100713.66
2022-09-24T03:22:13.524Z,100714.97
2022-09-24T03:24:40.131Z,100719.00
2022-09-24T03:27:06.571Z,100718.84
2022-09-24T03:29:51.276Z,100711.13
2022-09-24T03:32:17.705Z,100714.84
2022-09-24T03:34:44.082Z,100707.78
2022-09-24T03:37:10.511Z,100706.47
2022-09-24T03:39:36.911Z,100709.16
2022-09-24T03:42:03.359Z,100700.91
2022-09-24T03:44:29.838Z,100697.06
2022-09-24T03:46:57.029Z,100706.13
2022-09-24T03:49:23.644Z,100703.91
2022-09-24T03:51:50.371Z,100695.00
2022-09-24T03:54:16.974Z,100695.38
2022-09-24T03:56:43.459Z,100696.03
2022-09-24T03:59:12.993Z,100690.66
2022-09-24T04:01:39.509Z,100687.97
2022-09-24T04:04:06.118Z,100688.53
2022-09-24T04:06:32.576Z,100691.06
2022-09-24T04:09:00.354Z,100689.50
2022-09-24T04:11:27.036Z,100680.59
2022-09-24T04:13:53.483Z,100683.78
2022-09-24T04:16:19.962Z,100686.97
2022-09-24T04:18:47.963Z,100678.25
2022-09-24T04:21:14.457Z,100676.56
2022-09-24T04:23:40.869Z,100684.09
2022-09-24T04:26:07.315Z,100685.63
2022-09-24T04:28:33.780Z,100690.50
2022-09-24T04:31:00.322Z,100687.31
2022-09-24T04:33:27.214Z,100686.81
2022-09-24T04:35:53.810Z,100690.00
2022-09-24T04:38:21.353Z,100694.06
2022-09-24T04:40:48.270Z,100691.38
2022-09-24T04:43:14.746Z,100682.09
2022-09-24T04:45:46.409Z,100686.59
2022-09-24T04:48:13.056Z,100693.84
2022-09-24T04:50:43.405Z,100688.13
2022-09-24T04:53:12.406Z,100692.38
2022-09-24T04:55:39.366Z,100696.25
2022-09-24T04:58:05.898Z,100694.75
2022-09-24T05:00:33.415Z,100688.69
2022-09-24T05:03:03.790Z,100688.38
2022-09-24T05:05:32.237Z,100686.00
2022-09-24T05:07:59.517Z,100687.38
2022-09-24T05:10:26.306Z,100689.72
2022-09-24T05:12:53.045Z,100679.81
2022-09-24T05:15:19.962Z,100688.69
2022-09-24T05:17:46.467Z,100686.66
2022-09-24T05:20:13.325Z,100694.75
2022-09-24T05:22:46.734Z,100693.38
2022-09-24T05:25:14.838Z,100688.84
2022-09-24T05:27:45.678Z,100696.56
2022-09-24T05:30:13.067Z,100693.03
2022-09-24T05:32:40.078Z,100692.34
2022-09-24T05:35:08.277Z,100689.31
2022-09-24T05:37:36.298Z,100682.59
2022-09-24T05:40:23.880Z,100691.88
2022-09-24T05:42:50.914Z,100683.91
2022-09-24T05:45:18.376Z,100692.03
2022-09-24T05:47:46.051Z,100688.69
2022-09-24T05:50:15.361Z,100686.00
2022-09-24T05:52:42.428Z,100688.34
2022-09-24T05:55:10.519Z,100692.31
2022-09-24T05:57:36.953Z,100690.81
2022-09-24T06:00:05.236Z,100688.94
2022-09-24T06:02:31.832Z,100703.19
2022-09-24T06:04:58.327Z,100698.34
2022-09-24T06:07:24.766Z,100706.78
2022-09-24T06:09:51.480Z,100704.44
2022-09-24T06:12:18.005Z,100709.78
2022-09-24T06:14:44.380Z,100710.78
2022-09-24T06:17:10.979Z,100702.91
2022-09-24T06:19:37.529Z,100704.66
2022-09-24T06:22:03.969Z,100713.09
2022-09-24T06:24:30.562Z,100715.44
2022-09-24T06:26:58.268Z,100705.16
2022-09-24T06:29:24.736Z,100710.38
2022-09-24T06:31:53.262Z,100704.31
2022-09-24T06:34:19.803Z,100708.25
2022-09-24T06:36:46.379Z,100701.97
2022-09-24T06:39:12.911Z,100698.09
2022-09-24T06:41:39.345Z,100700.63
2022-09-24T06:44:05.806Z,100699.50
2022-09-24T06:46:32.285Z,100694.38
2022-09-24T06:48:58.786Z,100699.47
2022-09-24T06:51:25.281Z,100706.38
2022-09-24T06:53:52.603Z,100706.50
2022-09-24T06:56:19.581Z,100698.09
2022-09-24T06:58:46.535Z,100706.38
2022-09-24T07:01:13.180Z,100703.97
2022-09-24T07:03:40.225Z,100705.94
2022-09-24T07:06:07.236Z,100717.56
2022-09-24T07:08:34.924Z,100718.72
2022-09-24T07:11:02.199Z,100718.34
2022-09-24T07:13:28.746Z,100717.38
2022-09-24T07:15:55.297Z,100709.25
2022-09-24T07:18:22.111Z,100721.22
2022-09-24T07:20:56.154Z,100719.28
2022-09-24T07:23:23.634Z,100721.81
2022-09-24T07:25:51.140Z,100721.22
2022-09-24T07:28:18.862Z,100723.50
2022-09-24T07:30:45.315Z,100726.63
2022-09-24T07:33:11.739Z,100724.50
2022-09-24T07:35:39.241Z,100730.47
2022-09-24T07:38:14.167Z,100727.09
2022-09-24T07:40:40.705Z,100728.13
2022-09-24T07:43:12.300Z,100725.72
2022-09-24T07:45:38.964Z,100731.78
2022-09-24T07:48:05.694Z,100725.91
2022-09-24T07:50:33.962Z,100725.50
2022-09-24T07:53:00.675Z,100733.22
2022-09-24T07:55:27.744Z,100733.53
2022-09-24T07:57:55.454Z,100732.47
2022-09-24T08:00:23.446Z,100743.13
2022-09-24T08:02:50.440Z,100738.59
2022-09-24T08:05:17.987Z,100733.94
2022-09-24T08:07:52.922Z,100730.94
2022-09-24T08:10:19.502Z,100738.00
2022-09-24T08:12:45.982Z,100740.84
2022-09-24T08:15:12.442Z,100738.28
2022-09-24T08:17:38.877Z,100739.19
2022-09-24T08:20:05.765Z,100735.81
2022-09-24T08:22:33.540Z,100732.69
2022-09-24T08:25:00.378Z,100731.22
2022-09-24T08:27:27.931Z,100735.25
2022-09-24T08:29:54.377Z,100735.09
2022-09-24T08:32:20.814Z,100731.41
2022-09-24T08:34:47.263Z,100741.88
2022-09-24T08:37:13.856Z,100736.28
2022-09-24T08:39:40.364Z,100739.22
2022-09-24T08:42:29.196Z,100736.19
2022-09-24T08:45:16.341Z,100738.03
2022-09-24T08:48:00.840Z,100738.19
2022-09-24T08:50:30.756Z,100736.03
2022-09-24T08:53:06.908Z,100740.66
2022-09-24T08:55:35.733Z,100737.41
2022-09-24T08:58:19.228Z,100745.25
2022-09-24T09:01:05.074Z,100747.16
2022-09-24T09:03:37.380Z,100742.53
2022-09-24T09:06:09.554Z,100737.22
2022-09-24T09:09:13.369Z,100740.25
2022-09-24T09:11:43.620Z,100741.75
2022-09-24T09:14:28.076Z,100742.56
2022-09-24T09:17:06.675Z,100749.09
2022-09-24T09:19:34.569Z,100745.22
2022-09-24T09:22:14.488Z,100742.56
2022-09-24T09:24:44.387Z,100743.19
2022-09-24T09:27:14.980Z,100736.69
2022-09-24T09:29:44.313Z,100742.19
2022-09-24T09:32:40.140Z,100735.13
2022-09-24T09:35:19.518Z,100731.75
2022-09-24T09:38:19.548Z,100732.84
2022-09-24T09:40:57.416Z,100739.84
2022-09-24T09:43:25.331Z,100731.63
2022-09-24T09:46:13.834Z,100733.75
2022-09-24T09:48:54.395Z,100734.56
2022-09-24T09:51:25.855Z,100733.38
2022-09-24T09:54:00.959Z,100723.56
2022-09-24T09:56:34.236Z,100730.44
2022-09-24T09:59:12.527Z,100732.66
2022-09-24T10:01:41.856Z,100736.41
2022-09-24T10:04:49.114Z,100726.00
2022-09-24T10:07:18.727Z,100726.41
2022-09-24T10:09:46.668Z,100731.78
2022-09-24T10:12:17.416Z,100734.63
2022-09-24T10:14:44.560Z,100726.88
2022-09-24T10:17:16.156Z,100728.16
2022-09-24T10:19:45.340Z,100733.13
2022-09-24T10:22:21.511Z,100730.53
2022-09-24T10:24:49.805Z,100728.88
2022-09-24T10:27:37.276Z,100718.81
2022-09-24T10:30:32.132Z,100732.38
2022-09-24T10:33:01.021Z,100727.16
2022-09-24T10:35:35.869Z,100733.34
2022-09-24T10:38:15.281Z,100735.81
2022-09-24T10:40:42.085Z,100723.47
2022-09-24T10:43:17.519Z,100725.13
2022-09-24T10:45:56.069Z,100724.38
2022-09-24T10:48:34.615Z,100731.94
2022-09-24T10:51:28.795Z,100736.69
2022-09-24T10:54:17.358Z,100743.28
2022-09-24T10:56:49.497Z,100738.97
2022-09-24T10:59:51.337Z,100738.03
2022-09-24T11:02:45.073Z,100743.31
2022-09-24T11:05:22.593Z,100739.50
2022-09-24T11:07:55.109Z,100731.88
2022-09-24T11:10:31.548Z,100738.16
2022-09-24T11:13:20.724Z,100732.88
2022-09-24T11:15:56.266Z,100737.06
2022-09-24T11:18:28.525Z,100728.91
2022-09-24T11:21:03.225Z,100727.66
2022-09-24T11:23:49.549Z,100726.22
2022-09-24T11:26:46.955Z,100719.53
2022-09-24T11:29:37.173Z,100714.31
2022-09-24T11:32:31.377Z,100711.22
2022-09-24T11:35:29.952Z,100719.97
2022-09-24T11:38:01.191Z,100724.53
2022-09-24T11:40:34.207Z,100722.25
2022-09-24T11:43:18.408Z,100715.81
2022-09-24T11:45:44.808Z,100714.53
2022-09-24T11:48:24.177Z,100712.84
2022-09-24T11:50:59.451Z,100722.34
2022-09-24T11:53:28.903Z,100714.34
2022-09-24T11:56:02.035Z,100714.59
2022-09-24T11:58:37.047Z,100713.88
2022-09-24T12:01:12.356Z,100719.81
2022-09-24T12:04:03.966Z,100715.53
2022-09-24T12:06:35.756Z,100720.16
2022-09-24T12:09:27.245Z,100715.03
2022-09-24T12:11:58.639Z,100716.59
2022-09-24T12:14:29.955Z,100712.22
2022-09-24T12:17:03.342Z,100723.88
2022-09-24T12:19:51.274Z,100715.94
2022-09-24T12:22:20.477Z,100720.34
2022-09-24T12:24:54.500Z,100714.31
2022-09-24T12:27:38.280Z,100709.94
2022-09-24T12:31:11.922Z,100705.75
2022-09-24T12:33:45.662Z,100713.69
2022-09-24T12:36:32.386Z,100704.50
2022-09-24T12:39:06.561Z,100705.56
2022-09-24T12:41:35.483Z,100703.03
2022-09-24T12:44:10.781Z,100701.56
2022-09-24T12:46:40.269Z,100712.66
2022-09-24T12:49:25.244Z,100706.16
2022-09-24T12:51:57.416Z,100709.09
2022-09-24T12:54:28.454Z,100714.53
2022-09-24T12:57:08.243Z,100710.13
2022-09-24T12:59:34.753Z,100705.13
2022-09-24T13:02:15.957Z,100705.75
2022-09-24T13:05:02.558Z,100709.13
2022-09-24T13:07:40.654Z,100707.22
2022-09-24T13:10:17.437Z,100704.09
2022-09-24T13:12:45.347Z,100694.94
2022-09-24T13:15:28.333Z,100700.75
2022-09-24T13:18:13.662Z,100698.66
2022-09-24T13:20:47.635Z,100695.56
2022-09-24T13:23:19.506Z,100697.84
2022-09-24T13:25:57.683Z,100698.19
2022-09-24T13:28:38.213Z,100696.59
2022-09-24T13:31:20.147Z,100695.75
2022-09-24T13:33:50.609Z,100684.47
2022-09-24T13:36:23.807Z,100693.22
2022-09-24T13:38:57.636Z,100683.03
2022-09-24T13:42:01.799Z,100686.56
2022-09-24T13:45:06.168Z,100685.28
2022-09-24T13:47:51.709Z,100689.47
2022-09-24T13:50:24.214Z,100685.53
2022-09-24T13:53:23.820Z,100687.78
2022-09-24T13:55:54.632Z,100681.91
2022-09-24T13:58:34.353Z,100687.19
2022-09-24T14:01:30.059Z,100681.53
2022-09-24T14:04:06.351Z,100680.66
2022-09-24T14:06:40.374Z,100677.38
2022-09-24T14:09:15.896Z,100687.41
2022-09-24T14:11:50.625Z,100679.28
2022-09-24T14:14:19.804Z,100683.44
2022-09-24T14:16:46.442Z,100685.53
2022-09-24T14:19:15.369Z,100678.81
2022-09-24T14:21:54.291Z,100674.00
2022-09-24T14:25:05.824Z,100678.63
2022-09-24T14:27:36.801Z,100679.25
2022-09-24T14:30:07.259Z,100678.66
2022-09-24T14:32:40.459Z,100682.38
2022-09-24T14:35:18.488Z,100669.63
2022-09-24T14:37:52.445Z,100684.50
2022-09-24T14:40:23.037Z,100675.03
2022-09-24T14:42:55.153Z,100675.81
2022-09-24T14:45:37.716Z,100684.47
2022-09-24T14:48:06.632Z,100688.66
2022-09-24T14:50:38.693Z,100687.38
2022-09-24T14:55:50.705Z,100684.03
2022-09-24T14:58:29.832Z,100684.47
2022-09-24T15:01:01.971Z,100676.06
2022-09-24T15:03:53.187Z,100688.69
2022-09-24T15:06:25.589Z,100678.50
2022-09-24T15:08:57.373Z,100681.47
2022-09-24T15:11:29.196Z,100686.19
2022-09-24T15:14:27.339Z,100676.44
2022-09-24T15:16:54.810Z,100676.81
2022-09-24T15:19:28.867Z,100674.03
2022-09-24T15:21:57.227Z,100676.50
2022-09-24T15:24:24.948Z,100672.03
2022-09-24T15:27:03.170Z,100682.06
2022-09-24T15:29:30.042Z,100673.44
2022-09-24T15:31:57.761Z,100671.91
2022-09-24T15:34:24.686Z,100676.31
2022-09-24T15:36:59.019Z,100673.97
2022-09-24T15:39:27.489Z,100667.44
2022-09-24T15:41:54.128Z,100672.63
2022-09-24T15:44:28.316Z,100667.22
2022-09-24T15:46:55.118Z,100665.78
2022-09-24T15:49:22.949Z,100670.38
2022-09-24T15:51:49.337Z,100670.69
2022-09-24T15:54:15.869Z,100665.38
2022-09-24T15:56:44.338Z,100673.84
2022-09-24T15:59:14.413Z,100675.81
2022-09-24T16:01:42.482Z,100675.47
2022-09-24T16:04:12.068Z,100676.97
2022-09-24T16:06:38.804Z,100677.75
2022-09-24T16:09:05.332Z,100673.38
2022-09-24T16:11:32.042Z,100678.34
2022-09-24T16:13:58.485Z,100679.34
2022-09-24T16:16:25.199Z,100682.81
2022-09-24T16:18:52.485Z,100687.91
2022-09-24T16:21:19.178Z,100673.97
2022-09-24T16:23:45.636Z,100674.25
2022-09-24T16:26:12.042Z,100675.31
2022-09-24T16:28:38.515Z,100687.94
2022-09-24T16:31:07.143Z,100681.88
2022-09-24T16:33:38.952Z,100677.13
2022-09-24T16:36:06.574Z,100678.28
2022-09-24T16:38:37.617Z,100681.00
2022-09-24T16:41:06.041Z,100683.84
2022-09-24T16:43:33.291Z,100685.69
2022-09-24T16:46:01.672Z,100689.06
2022-09-24T16:48:28.126Z,100694.09
2022-09-24T16:50:55.390Z,100692.66
2022-09-24T16:53:21.831Z,100693.19
2022-09-24T16:55:50.356Z,100697.44
2022-09-24T16:58:16.833Z,100696.13
2022-09-24T17:00:43.626Z,100688.72
2022-09-24T17:03:11.295Z,100696.41
2022-09-24T17:05:40.543Z,100695.69
2022-09-24T17:08:06.982Z,100689.22
2022-09-24T17:10:33.422Z,100697.84
2022-09-24T17:13:01.614Z,100694.81
2022-09-24T17:15:28.213Z,100700.59
2022-09-24T17:17:54.705Z,100697.66
2022-09-24T17:20:21.295Z,100711.75
2022-09-24T17:22:48.501Z,100703.31
2022-09-24T17:25:15.348Z,100706.19
2022-09-24T17:27:41.777Z,100706.13
2022-09-24T17:30:09.602Z,100709.97
2022-09-24T17:32:36.219Z,100717.13
2022-09-24T17:35:02.704Z,100701.75
2022-09-24T17:37:29.137Z,100700.81
2022-09-24T17:39:55.816Z,100713.81
2022-09-24T17:42:22.252Z,100708.78
2022-09-24T17:44:48.666Z,100712.63
2022-09-24T17:47:15.240Z,100718.09
2022-09-24T17:49:42.535Z,100714.75
2022-09-24T17:52:09.038Z,100715.00
2022-09-24T17:54:35.974Z,100712.19
2022-09-24T17:57:02.401Z,100704.66
2022-09-24T17:59:28.946Z,100713.19
2022-09-24T18:01:55.631Z,100713.34
2022-09-24T18:04:22.933Z,100722.16
2022-09-24T18:06:50.011Z,100714.41
2022-09-24T18:09:18.028Z,100723.59
2022-09-24T18:11:49.573Z,100721.22
2022-09-24T18:14:20.363Z,100724.47
2022-09-24T18:16:46.961Z,100717.22
2022-09-24T18:19:15.644Z,100722.56
2022-09-24T18:21:42.443Z,100717.47
2022-09-24T18:24:10.279Z,100720.88
2022-09-24T18:26:39.888Z,100725.53
2022-09-24T18:29:17.641Z,100722.75
2022-09-24T18:31:44.843Z,100724.69
2022-09-24T18:34:14.614Z,100723.78
2022-09-24T18:36:42.501Z,100720.72
2022-09-24T18:39:13.751Z,100731.16
2022-09-24T18:41:41.636Z,100717.56
2022-09-24T18:44:09.052Z,100721.69
2022-09-24T18:46:35.660Z,100728.38
2022-09-24T18:49:02.562Z,100724.50
2022-09-24T18:51:34.610Z,100734.34
2022-09-24T18:54:04.376Z,100730.56
2022-09-24T18:56:31.445Z,100726.06
2022-09-24T18:59:07.286Z,100735.78
2022-09-24T19:01:37.026Z,100729.44
2022-09-24T19:04:04.085Z,100733.84
2022-09-24T19:06:31.458Z,100728.78
2022-09-24T19:08:58.111Z,100734.28
2022-09-24T19:11:24.609Z,100727.53
2022-09-24T19:13:53.379Z,100726.28
2022-09-24T19:16:23.650Z,100726.84
2022-09-24T19:18:51.292Z,100723.31
2022-09-24T19:21:17.842Z,100737.94
2022-09-24T19:23:52.652Z,100729.56
2022-09-24T19:26:24.961Z,100730.59
2022-09-24T19:28:52.245Z,100733.72
2022-09-24T19:31:21.910Z,100735.69
2022-09-24T19:33:50.012Z,100727.06
2022-09-24T19:36:17.309Z,100735.69
2022-09-24T19:38:43.883Z,100737.84
2022-09-24T19:41:26.197Z,100734.16
2022-09-24T19:43:54.658Z,100733.38
2022-09-24T19:46:25.766Z,100732.34
2022-09-24T19:48:53.738Z,100724.44
2022-09-24T19:51:24.818Z,100732.41
2022-09-24T19:53:54.285Z,100724.44
2022-09-24T19:56:22.572Z,100728.41
2022-09-24T19:58:52.670Z,100725.28
2022-09-24T20:01:21.213Z,100725.53
2022-09-24T20:03:48.346Z,100730.13
2022-09-24T20:06:20.702Z,100729.47
2022-09-24T20:08:47.264Z,100726.38
2022-09-24T20:11:20.422Z,100723.41
2022-09-24T20:13:51.941Z,100727.09
2022-09-24T20:16:20.567Z,100730.00
2022-09-24T20:18:51.896Z,100730.41
2022-09-24T20:21:19.450Z,100722.41
2022-09-24T20:23:47.266Z,100725.00
2022-09-24T20:26:33.769Z,100731.25
2022-09-24T20:29:00.334Z,100728.41
2022-09-24T20:31:26.899Z,100726.72
2022-09-24T20:33:53.466Z,100728.97
2022-09-24T20:36:24.433Z,100730.84
2022-09-24T20:38:51.518Z,100716.28
2022-09-24T20:41:20.514Z,100721.44
2022-09-24T20:43:47.335Z,100721.97
2022-09-24T20:46:25.020Z,100722.28
2022-09-24T20:48:52.923Z,100723.41
2022-09-24T20:51:21.315Z,100725.25
2022-09-24T20:53:49.601Z,100723.41
2022-09-24T20:56:17.982Z,100725.44
2022-09-24T20:58:44.952Z,100733.09
2022-09-24T21:01:11.525Z,100722.22
2022-09-24T21:03:45.564Z,100724.81
2022-09-24T21:06:14.865Z,100722.38
2022-09-24T21:08:43.288Z,100725.38
2022-09-24T21:11:12.699Z,100724.91
2022-09-24T21:13:41.667Z,100723.38
2022-09-24T21:16:09.493Z,100728.88
2022-09-24T21:18:40.208Z,100735.09
2022-09-24T21:21:11.277Z,100725.03
2022-09-24T21:23:39.630Z,100728.94
2022-09-24T21:26:16.029Z,100728.78
2022-09-24T21:28:46.572Z,100727.75
2022-09-24T21:31:19.334Z,100729.13
2022-09-24T21:33:47.498Z,100724.50
2022-09-24T21:36:18.558Z,100732.09
2022-09-24T21:39:13.034Z,100716.72
2022-09-24T21:41:39.525Z,100724.69
2022-09-24T21:44:08.351Z,100718.09
2022-09-24T21:46:35.638Z,100723.75
2022-09-24T21:49:02.758Z,100724.88
2022-09-24T21:51:30.138Z,100727.81
2022-09-24T21:54:05.818Z,100726.72
2022-09-24T21:56:34.958Z,100721.09
2022-09-24T21:59:02.225Z,100719.97
